sensor_id;sensor_type;location;lat;lon;timestamp;P1;durP1;ratioP1;P2;durP2;ratioP2
9801;SDS011;4940;50.900;4.672;2023-02-02T00:00:32;14.82;;;2.40;;
9801;SDS011;4940;50.900;4.672;2023-02-02T00:03:01;7.50;;;2.13;;
9801;SDS011;4940;50.900;4.672;2023-02-02T00:05:29;8.50;;;2.40;;
9801;SDS011;4940;50.900;4.672;2023-02-02T00:07:56;6.57;;;2.17;;
9801;SDS011;4940;50.900;4.672;2023-02-02T00:10:24;10.57;;;2.45;;
9801;SDS011;4940;50.900;4.672;2023-02-02T00:12:51;8.15;;;2.47;;
9801;SDS011;4940;50.900;4.672;2023-02-02T00:15:22;9.30;;;2.47;;
9801;SDS011;4940;50.900;4.672;2023-02-02T00:17:49;12.43;;;2.75;;
9801;SDS011;4940;50.900;4.672;2023-02-02T00:20:18;12.38;;;2.47;;
9801;SDS011;4940;50.900;4.672;2023-02-02T00:22:48;8.25;;;2.17;;
9801;SDS011;4940;50.900;4.672;2023-02-02T00:25:15;11.93;;;2.50;;
9801;SDS011;4940;50.900;4.672;2023-02-02T00:27:43;10.18;;;2.35;;
9801;SDS011;4940;50.900;4.672;2023-02-02T00:30:11;10.88;;;2.50;;
9801;SDS011;4940;50.900;4.672;2023-02-02T00:32:38;8.63;;;2.15;;
9801;SDS011;4940;50.900;4.672;2023-02-02T00:35:06;3.92;;;1.92;;
9801;SDS011;4940;50.900;4.672;2023-02-02T00:37:35;11.73;;;2.22;;
9801;SDS011;4940;50.900;4.672;2023-02-02T00:40:02;11.15;;;2.42;;
9801;SDS011;4940;50.900;4.672;2023-02-02T00:42:30;14.35;;;2.50;;
9801;SDS011;4940;50.900;4.672;2023-02-02T00:44:58;9.52;;;1.88;;
9801;SDS011;4940;50.900;4.672;2023-02-02T00:47:44;7.70;;;2.30;;
9801;SDS011;4940;50.900;4.672;2023-02-02T00:50:13;10.75;;;2.25;;
9801;SDS011;4940;50.900;4.672;2023-02-02T00:52:43;13.02;;;2.55;;
9801;SDS011;4940;50.900;4.672;2023-02-02T00:55:11;11.40;;;2.10;;
9801;SDS011;4940;50.900;4.672;2023-02-02T00:57:39;9.25;;;2.30;;
9801;SDS011;4940;50.900;4.672;2023-02-02T01:00:11;14.10;;;2.47;;
9801;SDS011;4940;50.900;4.672;2023-02-02T01:02:40;9.07;;;2.10;;
9801;SDS011;4940;50.900;4.672;2023-02-02T01:05:08;12.73;;;2.60;;
9801;SDS011;4940;50.900;4.672;2023-02-02T01:07:35;9.90;;;2.38;;
9801;SDS011;4940;50.900;4.672;2023-02-02T01:10:05;10.23;;;2.25;;
9801;SDS011;4940;50.900;4.672;2023-02-02T01:12:34;10.13;;;2.70;;
9801;SDS011;4940;50.900;4.672;2023-02-02T01:15:02;10.10;;;2.58;;
9801;SDS011;4940;50.900;4.672;2023-02-02T01:17:30;12.52;;;2.50;;
9801;SDS011;4940;50.900;4.672;2023-02-02T01:19:57;7.63;;;2.28;;
9801;SDS011;4940;50.900;4.672;2023-02-02T01:22:24;16.88;;;2.95;;
9801;SDS011;4940;50.900;4.672;2023-02-02T01:24:52;10.20;;;2.58;;
9801;SDS011;4940;50.900;4.672;2023-02-02T01:27:21;9.95;;;2.45;;
9801;SDS011;4940;50.900;4.672;2023-02-02T01:29:48;11.52;;;2.75;;
9801;SDS011;4940;50.900;4.672;2023-02-02T01:32:15;6.50;;;2.40;;
9801;SDS011;4940;50.900;4.672;2023-02-02T01:34:43;11.13;;;2.63;;
9801;SDS011;4940;50.900;4.672;2023-02-02T01:37:10;14.30;;;3.22;;
9801;SDS011;4940;50.900;4.672;2023-02-02T01:39:37;13.65;;;3.03;;
9801;SDS011;4940;50.900;4.672;2023-02-02T01:42:10;11.48;;;2.55;;
9801;SDS011;4940;50.900;4.672;2023-02-02T01:47:33;11.82;;;2.92;;
9801;SDS011;4940;50.900;4.672;2023-02-02T01:50:03;8.00;;;2.20;;
9801;SDS011;4940;50.900;4.672;2023-02-02T01:52:32;17.98;;;2.60;;
9801;SDS011;4940;50.900;4.672;2023-02-02T01:55:02;8.60;;;2.40;;
9801;SDS011;4940;50.900;4.672;2023-02-02T01:57:37;9.57;;;2.63;;
9801;SDS011;4940;50.900;4.672;2023-02-02T02:00:10;13.88;;;2.90;;
9801;SDS011;4940;50.900;4.672;2023-02-02T02:02:39;11.07;;;2.80;;
9801;SDS011;4940;50.900;4.672;2023-02-02T02:05:10;10.13;;;2.63;;
9801;SDS011;4940;50.900;4.672;2023-02-02T02:07:40;10.20;;;2.20;;
9801;SDS011;4940;50.900;4.672;2023-02-02T02:10:09;12.60;;;2.70;;
9801;SDS011;4940;50.900;4.672;2023-02-02T02:12:36;12.00;;;2.38;;
9801;SDS011;4940;50.900;4.672;2023-02-02T02:15:04;11.15;;;2.35;;
9801;SDS011;4940;50.900;4.672;2023-02-02T02:17:53;11.98;;;2.38;;
9801;SDS011;4940;50.900;4.672;2023-02-02T02:27:23;13.45;;;2.90;;
9801;SDS011;4940;50.900;4.672;2023-02-02T02:30:20;9.30;;;2.38;;
9801;SDS011;4940;50.900;4.672;2023-02-02T02:33:06;14.82;;;2.65;;
9801;SDS011;4940;50.900;4.672;2023-02-02T02:35:41;9.23;;;2.17;;
9801;SDS011;4940;50.900;4.672;2023-02-02T02:38:18;11.48;;;2.88;;
9801;SDS011;4940;50.900;4.672;2023-02-02T02:40:52;9.25;;;2.08;;
9801;SDS011;4940;50.900;4.672;2023-02-02T02:43:22;12.20;;;2.20;;
9801;SDS011;4940;50.900;4.672;2023-02-02T02:45:55;7.35;;;2.30;;
9801;SDS011;4940;50.900;4.672;2023-02-02T02:48:23;10.40;;;2.35;;
9801;SDS011;4940;50.900;4.672;2023-02-02T02:50:51;8.75;;;2.50;;
9801;SDS011;4940;50.900;4.672;2023-02-02T02:53:19;7.40;;;2.55;;
9801;SDS011;4940;50.900;4.672;2023-02-02T02:55:47;12.48;;;2.45;;
9801;SDS011;4940;50.900;4.672;2023-02-02T02:58:20;10.50;;;3.00;;
9801;SDS011;4940;50.900;4.672;2023-02-02T03:00:58;7.13;;;1.70;;
9801;SDS011;4940;50.900;4.672;2023-02-02T03:03:50;10.13;;;1.80;;
9801;SDS011;4940;50.900;4.672;2023-02-02T03:06:25;8.48;;;2.28;;
9801;SDS011;4940;50.900;4.672;2023-02-02T03:08:56;7.43;;;1.95;;
9801;SDS011;4940;50.900;4.672;2023-02-02T03:11:26;9.55;;;2.63;;
9801;SDS011;4940;50.900;4.672;2023-02-02T03:13:54;13.90;;;2.55;;
9801;SDS011;4940;50.900;4.672;2023-02-02T03:16:22;13.43;;;2.47;;
9801;SDS011;4940;50.900;4.672;2023-02-02T03:18:51;11.48;;;2.45;;
9801;SDS011;4940;50.900;4.672;2023-02-02T03:21:20;6.60;;;2.90;;
9801;SDS011;4940;50.900;4.672;2023-02-02T03:23:47;10.18;;;2.53;;
9801;SDS011;4940;50.900;4.672;2023-02-02T03:26:14;7.25;;;1.90;;
9801;SDS011;4940;50.900;4.672;2023-02-02T03:28:42;12.25;;;2.78;;
9801;SDS011;4940;50.900;4.672;2023-02-02T03:31:09;10.55;;;2.60;;
9801;SDS011;4940;50.900;4.672;2023-02-02T03:33:37;9.52;;;2.63;;
9801;SDS011;4940;50.900;4.672;2023-02-02T03:36:06;4.95;;;2.08;;
9801;SDS011;4940;50.900;4.672;2023-02-02T03:38:34;10.40;;;2.65;;
9801;SDS011;4940;50.900;4.672;2023-02-02T03:41:01;7.60;;;1.90;;
9801;SDS011;4940;50.900;4.672;2023-02-02T03:43:29;12.98;;;2.30;;
9801;SDS011;4940;50.900;4.672;2023-02-02T03:45:56;10.90;;;2.85;;
9801;SDS011;4940;50.900;4.672;2023-02-02T03:48:24;9.23;;;1.98;;
9801;SDS011;4940;50.900;4.672;2023-02-02T03:50:52;5.53;;;2.35;;
9801;SDS011;4940;50.900;4.672;2023-02-02T03:53:21;8.60;;;1.90;;
9801;SDS011;4940;50.900;4.672;2023-02-02T03:55:48;6.43;;;2.38;;
9801;SDS011;4940;50.900;4.672;2023-02-02T03:58:15;10.95;;;2.30;;
9801;SDS011;4940;50.900;4.672;2023-02-02T04:00:46;13.40;;;2.40;;
9801;SDS011;4940;50.900;4.672;2023-02-02T04:03:14;5.72;;;2.00;;
9801;SDS011;4940;50.900;4.672;2023-02-02T04:05:41;7.20;;;1.70;;
9801;SDS011;4940;50.900;4.672;2023-02-02T04:08:08;7.00;;;2.50;;
9801;SDS011;4940;50.900;4.672;2023-02-02T04:10:37;9.73;;;2.00;;
9801;SDS011;4940;50.900;4.672;2023-02-02T04:13:06;9.75;;;2.42;;
9801;SDS011;4940;50.900;4.672;2023-02-02T04:15:34;7.32;;;2.05;;
9801;SDS011;4940;50.900;4.672;2023-02-02T04:18:01;10.25;;;2.63;;
9801;SDS011;4940;50.900;4.672;2023-02-02T04:20:28;8.82;;;2.30;;
9801;SDS011;4940;50.900;4.672;2023-02-02T04:22:56;8.45;;;2.78;;
9801;SDS011;4940;50.900;4.672;2023-02-02T04:25:23;8.35;;;2.33;;
9801;SDS011;4940;50.900;4.672;2023-02-02T04:27:52;7.78;;;2.00;;
9801;SDS011;4940;50.900;4.672;2023-02-02T04:30:19;11.70;;;2.30;;
9801;SDS011;4940;50.900;4.672;2023-02-02T04:32:47;6.22;;;1.75;;
9801;SDS011;4940;50.900;4.672;2023-02-02T04:35:14;6.63;;;2.03;;
9801;SDS011;4940;50.900;4.672;2023-02-02T04:37:41;9.30;;;2.20;;
9801;SDS011;4940;50.900;4.672;2023-02-02T04:40:09;10.40;;;2.53;;
9801;SDS011;4940;50.900;4.672;2023-02-02T04:42:37;15.38;;;2.47;;
9801;SDS011;4940;50.900;4.672;2023-02-02T04:45:06;7.85;;;1.92;;
9801;SDS011;4940;50.900;4.672;2023-02-02T04:47:34;9.85;;;2.03;;
9801;SDS011;4940;50.900;4.672;2023-02-02T04:50:02;11.32;;;2.45;;
9801;SDS011;4940;50.900;4.672;2023-02-02T04:52:30;9.65;;;2.00;;
9801;SDS011;4940;50.900;4.672;2023-02-02T04:54:57;7.10;;;1.80;;
9801;SDS011;4940;50.900;4.672;2023-02-02T04:57:25;7.53;;;1.90;;
9801;SDS011;4940;50.900;4.672;2023-02-02T04:59:52;8.57;;;2.22;;
9801;SDS011;4940;50.900;4.672;2023-02-02T05:02:21;9.93;;;2.20;;
9801;SDS011;4940;50.900;4.672;2023-02-02T05:04:48;10.82;;;2.53;;
9801;SDS011;4940;50.900;4.672;2023-02-02T05:07:16;5.75;;;1.92;;
9801;SDS011;4940;50.900;4.672;2023-02-02T05:09:43;8.02;;;2.17;;
9801;SDS011;4940;50.900;4.672;2023-02-02T05:12:11;7.57;;;2.05;;
9801;SDS011;4940;50.900;4.672;2023-02-02T05:14:38;9.82;;;2.10;;
9801;SDS011;4940;50.900;4.672;2023-02-02T05:17:05;10.43;;;2.30;;
9801;SDS011;4940;50.900;4.672;2023-02-02T05:19:34;7.82;;;2.17;;
9801;SDS011;4940;50.900;4.672;2023-02-02T05:22:02;8.60;;;1.70;;
9801;SDS011;4940;50.900;4.672;2023-02-02T05:24:29;8.15;;;1.80;;
9801;SDS011;4940;50.900;4.672;2023-02-02T05:26:56;6.72;;;1.92;;
9801;SDS011;4940;50.900;4.672;2023-02-02T05:29:25;8.23;;;2.47;;
9801;SDS011;4940;50.900;4.672;2023-02-02T05:31:52;7.60;;;1.55;;
9801;SDS011;4940;50.900;4.672;2023-02-02T05:34:20;9.23;;;1.65;;
9801;SDS011;4940;50.900;4.672;2023-02-02T05:36:49;11.23;;;2.03;;
9801;SDS011;4940;50.900;4.672;2023-02-02T05:39:16;12.73;;;2.20;;
9801;SDS011;4940;50.900;4.672;2023-02-02T05:41:44;7.57;;;1.80;;
9801;SDS011;4940;50.900;4.672;2023-02-02T05:44:12;7.57;;;1.88;;
9801;SDS011;4940;50.900;4.672;2023-02-02T05:46:40;6.00;;;1.50;;
9801;SDS011;4940;50.900;4.672;2023-02-02T05:49:09;7.95;;;2.00;;
9801;SDS011;4940;50.900;4.672;2023-02-02T05:51:38;7.47;;;2.20;;
9801;SDS011;4940;50.900;4.672;2023-02-02T05:54:09;7.82;;;1.60;;
9801;SDS011;4940;50.900;4.672;2023-02-02T05:56:36;9.40;;;1.85;;
9801;SDS011;4940;50.900;4.672;2023-02-02T05:59:04;4.88;;;1.92;;
9801;SDS011;4940;50.900;4.672;2023-02-02T06:01:31;9.13;;;2.75;;
9801;SDS011;4940;50.900;4.672;2023-02-02T06:03:59;8.15;;;2.40;;
9801;SDS011;4940;50.900;4.672;2023-02-02T06:06:27;4.63;;;2.00;;
9801;SDS011;4940;50.900;4.672;2023-02-02T06:08:54;7.30;;;2.00;;
9801;SDS011;4940;50.900;4.672;2023-02-02T06:11:23;7.93;;;2.00;;
9801;SDS011;4940;50.900;4.672;2023-02-02T06:13:50;9.27;;;2.22;;
9801;SDS011;4940;50.900;4.672;2023-02-02T06:16:17;6.40;;;2.25;;
9801;SDS011;4940;50.900;4.672;2023-02-02T06:18:45;8.63;;;2.22;;
9801;SDS011;4940;50.900;4.672;2023-02-02T06:21:12;9.18;;;2.65;;
9801;SDS011;4940;50.900;4.672;2023-02-02T06:23:40;7.90;;;2.70;;
9801;SDS011;4940;50.900;4.672;2023-02-02T06:26:10;8.90;;;2.63;;
9801;SDS011;4940;50.900;4.672;2023-02-02T06:28:38;8.07;;;2.40;;
9801;SDS011;4940;50.900;4.672;2023-02-02T06:31:10;7.72;;;2.40;;
9801;SDS011;4940;50.900;4.672;2023-02-02T06:33:37;8.98;;;2.88;;
9801;SDS011;4940;50.900;4.672;2023-02-02T06:36:05;11.00;;;2.60;;
9801;SDS011;4940;50.900;4.672;2023-02-02T06:38:32;11.45;;;3.25;;
9801;SDS011;4940;50.900;4.672;2023-02-02T06:41:00;10.43;;;2.88;;
9801;SDS011;4940;50.900;4.672;2023-02-02T06:43:28;6.20;;;2.60;;
9801;SDS011;4940;50.900;4.672;2023-02-02T06:45:57;13.57;;;2.90;;
9801;SDS011;4940;50.900;4.672;2023-02-02T06:48:24;18.10;;;3.42;;
9801;SDS011;4940;50.900;4.672;2023-02-02T06:50:52;11.68;;;3.58;;
9801;SDS011;4940;50.900;4.672;2023-02-02T06:53:20;5.35;;;2.80;;
9801;SDS011;4940;50.900;4.672;2023-02-02T06:55:51;7.10;;;3.30;;
9801;SDS011;4940;50.900;4.672;2023-02-02T06:58:19;5.72;;;2.90;;
9801;SDS011;4940;50.900;4.672;2023-02-02T07:00:47;6.78;;;2.70;;
9801;SDS011;4940;50.900;4.672;2023-02-02T07:03:16;7.30;;;2.78;;
9801;SDS011;4940;50.900;4.672;2023-02-02T07:05:45;4.13;;;2.38;;
9801;SDS011;4940;50.900;4.672;2023-02-02T07:08:13;6.82;;;2.92;;
9801;SDS011;4940;50.900;4.672;2023-02-02T07:10:40;6.43;;;2.92;;
9801;SDS011;4940;50.900;4.672;2023-02-02T07:13:08;8.45;;;3.35;;
9801;SDS011;4940;50.900;4.672;2023-02-02T07:15:37;9.07;;;3.65;;
9801;SDS011;4940;50.900;4.672;2023-02-02T07:18:05;10.52;;;3.17;;
9801;SDS011;4940;50.900;4.672;2023-02-02T07:20:33;6.15;;;2.90;;
9801;SDS011;4940;50.900;4.672;2023-02-02T07:23:01;8.02;;;3.53;;
9801;SDS011;4940;50.900;4.672;2023-02-02T07:25:29;9.25;;;3.80;;
9801;SDS011;4940;50.900;4.672;2023-02-02T07:27:56;8.30;;;3.22;;
9801;SDS011;4940;50.900;4.672;2023-02-02T07:30:23;13.35;;;3.55;;
9801;SDS011;4940;50.900;4.672;2023-02-02T07:32:53;10.27;;;3.45;;
9801;SDS011;4940;50.900;4.672;2023-02-02T07:35:21;8.13;;;3.90;;
9801;SDS011;4940;50.900;4.672;2023-02-02T07:37:51;10.80;;;3.28;;
9801;SDS011;4940;50.900;4.672;2023-02-02T07:40:19;6.15;;;3.60;;
9801;SDS011;4940;50.900;4.672;2023-02-02T07:42:46;8.20;;;3.95;;
9801;SDS011;4940;50.900;4.672;2023-02-02T07:45:14;12.75;;;3.53;;
9801;SDS011;4940;50.900;4.672;2023-02-02T07:47:42;10.93;;;3.60;;
9801;SDS011;4940;50.900;4.672;2023-02-02T07:50:09;10.88;;;3.40;;
9801;SDS011;4940;50.900;4.672;2023-02-02T07:52:37;10.13;;;3.60;;
9801;SDS011;4940;50.900;4.672;2023-02-02T07:55:06;11.23;;;3.67;;
9801;SDS011;4940;50.900;4.672;2023-02-02T07:57:36;14.27;;;2.92;;
9801;SDS011;4940;50.900;4.672;2023-02-02T08:00:03;11.07;;;3.63;;
9801;SDS011;4940;50.900;4.672;2023-02-02T08:02:31;5.93;;;3.50;;
9801;SDS011;4940;50.900;4.672;2023-02-02T08:04:59;9.50;;;3.58;;
9801;SDS011;4940;50.900;4.672;2023-02-02T08:07:26;9.20;;;3.33;;
9801;SDS011;4940;50.900;4.672;2023-02-02T08:09:56;6.13;;;3.20;;
9801;SDS011;4940;50.900;4.672;2023-02-02T08:12:25;9.07;;;3.20;;
9801;SDS011;4940;50.900;4.672;2023-02-02T08:14:52;5.90;;;2.38;;
9801;SDS011;4940;50.900;4.672;2023-02-02T08:17:20;12.70;;;3.13;;
9801;SDS011;4940;50.900;4.672;2023-02-02T08:19:47;8.60;;;2.72;;
9801;SDS011;4940;50.900;4.672;2023-02-02T08:22:15;6.55;;;2.92;;
9801;SDS011;4940;50.900;4.672;2023-02-02T08:24:42;6.60;;;2.45;;
9801;SDS011;4940;50.900;4.672;2023-02-02T08:27:10;9.27;;;2.63;;
9801;SDS011;4940;50.900;4.672;2023-02-02T08:29:39;7.47;;;2.40;;
9801;SDS011;4940;50.900;4.672;2023-02-02T08:32:06;8.75;;;2.45;;
9801;SDS011;4940;50.900;4.672;2023-02-02T08:34:33;7.22;;;2.20;;
9801;SDS011;4940;50.900;4.672;2023-02-02T08:37:01;9.75;;;2.67;;
9801;SDS011;4940;50.900;4.672;2023-02-02T08:39:28;6.22;;;2.92;;
9801;SDS011;4940;50.900;4.672;2023-02-02T08:41:56;15.98;;;3.03;;
9801;SDS011;4940;50.900;4.672;2023-02-02T08:44:23;5.90;;;2.28;;
9801;SDS011;4940;50.900;4.672;2023-02-02T08:46:52;5.65;;;2.08;;
9801;SDS011;4940;50.900;4.672;2023-02-02T08:49:19;8.35;;;2.17;;
9801;SDS011;4940;50.900;4.672;2023-02-02T08:51:47;5.78;;;1.58;;
9801;SDS011;4940;50.900;4.672;2023-02-02T08:54:14;6.93;;;1.77;;
9801;SDS011;4940;50.900;4.672;2023-02-02T08:56:42;8.77;;;2.10;;
9801;SDS011;4940;50.900;4.672;2023-02-02T08:59:09;7.40;;;1.80;;
9801;SDS011;4940;50.900;4.672;2023-02-02T09:01:37;9.27;;;2.13;;
9801;SDS011;4940;50.900;4.672;2023-02-02T09:04:07;5.65;;;1.95;;
9801;SDS011;4940;50.900;4.672;2023-02-02T09:06:40;10.23;;;2.08;;
9801;SDS011;4940;50.900;4.672;2023-02-02T09:09:08;11.52;;;2.55;;
9801;SDS011;4940;50.900;4.672;2023-02-02T09:11:38;3.95;;;1.65;;
9801;SDS011;4940;50.900;4.672;2023-02-02T09:14:05;4.90;;;1.77;;
9801;SDS011;4940;50.900;4.672;2023-02-02T09:16:34;6.05;;;1.88;;
9801;SDS011;4940;50.900;4.672;2023-02-02T09:19:01;9.52;;;1.80;;
9801;SDS011;4940;50.900;4.672;2023-02-02T09:21:30;5.07;;;1.92;;
9801;SDS011;4940;50.900;4.672;2023-02-02T09:24:01;5.03;;;1.98;;
9801;SDS011;4940;50.900;4.672;2023-02-02T09:26:28;7.25;;;1.83;;
9801;SDS011;4940;50.900;4.672;2023-02-02T09:28:56;8.95;;;2.53;;
9801;SDS011;4940;50.900;4.672;2023-02-02T09:31:26;4.38;;;2.10;;
9801;SDS011;4940;50.900;4.672;2023-02-02T09:33:54;6.18;;;2.25;;
9801;SDS011;4940;50.900;4.672;2023-02-02T09:36:26;8.98;;;2.10;;
9801;SDS011;4940;50.900;4.672;2023-02-02T09:38:55;6.90;;;1.45;;
9801;SDS011;4940;50.900;4.672;2023-02-02T09:44:19;10.52;;;2.10;;
9801;SDS011;4940;50.900;4.672;2023-02-02T09:47:00;7.88;;;1.92;;
9801;SDS011;4940;50.900;4.672;2023-02-02T09:49:38;4.47;;;1.83;;
9801;SDS011;4940;50.900;4.672;2023-02-02T09:52:16;6.85;;;1.50;;
9801;SDS011;4940;50.900;4.672;2023-02-02T09:54:49;7.13;;;2.03;;
9801;SDS011;4940;50.900;4.672;2023-02-02T09:57:18;4.25;;;1.40;;
9801;SDS011;4940;50.900;4.672;2023-02-02T09:59:49;5.78;;;1.70;;
9801;SDS011;4940;50.900;4.672;2023-02-02T10:02:19;7.13;;;1.52;;
9801;SDS011;4940;50.900;4.672;2023-02-02T10:04:50;7.85;;;1.90;;
9801;SDS011;4940;50.900;4.672;2023-02-02T10:07:22;5.53;;;1.58;;
9801;SDS011;4940;50.900;4.672;2023-02-02T10:09:57;6.07;;;1.70;;
9801;SDS011;4940;50.900;4.672;2023-02-02T10:12:29;5.38;;;2.05;;
9801;SDS011;4940;50.900;4.672;2023-02-02T10:15:03;3.88;;;2.05;;
9801;SDS011;4940;50.900;4.672;2023-02-02T10:17:39;5.97;;;2.00;;
9801;SDS011;4940;50.900;4.672;2023-02-02T10:20:14;5.65;;;1.80;;
9801;SDS011;4940;50.900;4.672;2023-02-02T10:22:48;4.85;;;1.73;;
9801;SDS011;4940;50.900;4.672;2023-02-02T10:25:17;7.50;;;1.90;;
9801;SDS011;4940;50.900;4.672;2023-02-02T10:27:50;10.68;;;1.88;;
9801;SDS011;4940;50.900;4.672;2023-02-02T10:30:24;3.13;;;1.48;;
9801;SDS011;4940;50.900;4.672;2023-02-02T10:33:00;3.35;;;1.60;;
9801;SDS011;4940;50.900;4.672;2023-02-02T10:35:33;6.15;;;1.73;;
9801;SDS011;4940;50.900;4.672;2023-02-02T10:38:08;6.78;;;1.90;;
9801;SDS011;4940;50.900;4.672;2023-02-02T10:40:50;4.63;;;1.58;;
9801;SDS011;4940;50.900;4.672;2023-02-02T10:46:26;8.52;;;1.63;;
9801;SDS011;4940;50.900;4.672;2023-02-02T10:49:01;4.50;;;1.60;;
9801;SDS011;4940;50.900;4.672;2023-02-02T10:51:40;3.72;;;1.25;;
9801;SDS011;4940;50.900;4.672;2023-02-02T10:54:19;3.50;;;1.20;;
9801;SDS011;4940;50.900;4.672;2023-02-02T10:57:03;3.60;;;1.63;;
9801;SDS011;4940;50.900;4.672;2023-02-02T10:59:34;7.82;;;1.95;;
9801;SDS011;4940;50.900;4.672;2023-02-02T11:02:09;5.72;;;1.10;;
9801;SDS011;4940;50.900;4.672;2023-02-02T11:04:37;6.93;;;1.70;;
9801;SDS011;4940;50.900;4.672;2023-02-02T11:07:22;5.63;;;1.70;;
9801;SDS011;4940;50.900;4.672;2023-02-02T11:09:49;5.45;;;1.77;;
9801;SDS011;4940;50.900;4.672;2023-02-02T11:12:19;3.20;;;1.40;;
9801;SDS011;4940;50.900;4.672;2023-02-02T11:14:51;3.80;;;1.50;;
9801;SDS011;4940;50.900;4.672;2023-02-02T11:17:26;9.40;;;1.77;;
9801;SDS011;4940;50.900;4.672;2023-02-02T11:19:54;3.25;;;1.25;;
9801;SDS011;4940;50.900;4.672;2023-02-02T11:22:25;6.65;;;1.23;;
9801;SDS011;4940;50.900;4.672;2023-02-02T11:24:57;6.28;;;1.38;;
9801;SDS011;4940;50.900;4.672;2023-02-02T11:27:28;8.30;;;1.48;;
9801;SDS011;4940;50.900;4.672;2023-02-02T11:29:58;5.85;;;1.70;;
9801;SDS011;4940;50.900;4.672;2023-02-02T11:32:35;5.15;;;1.40;;
9801;SDS011;4940;50.900;4.672;2023-02-02T11:37:58;6.40;;;1.60;;
9801;SDS011;4940;50.900;4.672;2023-02-02T11:40:34;5.18;;;1.73;;
9801;SDS011;4940;50.900;4.672;2023-02-02T11:43:06;8.50;;;2.35;;
9801;SDS011;4940;50.900;4.672;2023-02-02T11:45:43;6.82;;;1.95;;
9801;SDS011;4940;50.900;4.672;2023-02-02T11:48:15;5.57;;;1.77;;
9801;SDS011;4940;50.900;4.672;2023-02-02T11:50:44;4.47;;;1.42;;
9801;SDS011;4940;50.900;4.672;2023-02-02T11:53:20;6.97;;;1.70;;
9801;SDS011;4940;50.900;4.672;2023-02-02T11:55:50;8.23;;;1.75;;
9801;SDS011;4940;50.900;4.672;2023-02-02T11:58:20;7.35;;;1.75;;
9801;SDS011;4940;50.900;4.672;2023-02-02T12:00:56;3.58;;;1.70;;
9801;SDS011;4940;50.900;4.672;2023-02-02T12:03:27;3.65;;;1.77;;
9801;SDS011;4940;50.900;4.672;2023-02-02T12:05:58;9.30;;;1.88;;
9801;SDS011;4940;50.900;4.672;2023-02-02T12:08:28;6.60;;;1.77;;
9801;SDS011;4940;50.900;4.672;2023-02-02T12:10:57;9.20;;;1.80;;
9801;SDS011;4940;50.900;4.672;2023-02-02T12:13:39;5.78;;;2.10;;
9801;SDS011;4940;50.900;4.672;2023-02-02T12:16:25;8.45;;;2.00;;
9801;SDS011;4940;50.900;4.672;2023-02-02T12:19:22;5.07;;;2.22;;
9801;SDS011;4940;50.900;4.672;2023-02-02T12:22:06;4.85;;;1.92;;
9801;SDS011;4940;50.900;4.672;2023-02-02T12:24:49;7.15;;;1.40;;
9801;SDS011;4940;50.900;4.672;2023-02-02T12:27:24;6.70;;;1.90;;
9801;SDS011;4940;50.900;4.672;2023-02-02T12:30:02;4.07;;;1.52;;
9801;SDS011;4940;50.900;4.672;2023-02-02T12:32:56;5.38;;;1.80;;
9801;SDS011;4940;50.900;4.672;2023-02-02T12:35:44;3.03;;;1.75;;
9801;SDS011;4940;50.900;4.672;2023-02-02T12:38:23;3.00;;;1.60;;
9801;SDS011;4940;50.900;4.672;2023-02-02T12:41:06;2.72;;;1.45;;
9801;SDS011;4940;50.900;4.672;2023-02-02T12:43:44;5.53;;;1.77;;
9801;SDS011;4940;50.900;4.672;2023-02-02T12:46:22;2.92;;;1.73;;
9801;SDS011;4940;50.900;4.672;2023-02-02T12:49:18;3.22;;;1.33;;
9801;SDS011;4940;50.900;4.672;2023-02-02T12:51:56;4.75;;;1.48;;
9801;SDS011;4940;50.900;4.672;2023-02-02T12:54:39;7.18;;;1.70;;
9801;SDS011;4940;50.900;4.672;2023-02-02T12:57:18;4.00;;;1.35;;
9801;SDS011;4940;50.900;4.672;2023-02-02T13:00:02;7.32;;;1.63;;
9801;SDS011;4940;50.900;4.672;2023-02-02T13:02:51;3.10;;;1.38;;
9801;SDS011;4940;50.900;4.672;2023-02-02T13:05:32;7.00;;;1.60;;
9801;SDS011;4940;50.900;4.672;2023-02-02T13:08:11;10.35;;;2.35;;
9801;SDS011;4940;50.900;4.672;2023-02-02T13:10:44;3.25;;;1.50;;
9801;SDS011;4940;50.900;4.672;2023-02-02T13:13:15;4.20;;;1.55;;
9801;SDS011;4940;50.900;4.672;2023-02-02T13:15:45;2.80;;;1.50;;
9801;SDS011;4940;50.900;4.672;2023-02-02T13:18:17;4.82;;;1.70;;
9801;SDS011;4940;50.900;4.672;2023-02-02T13:20:49;3.00;;;1.45;;
9801;SDS011;4940;50.900;4.672;2023-02-02T13:23:20;5.93;;;1.90;;
9801;SDS011;4940;50.900;4.672;2023-02-02T13:25:51;5.45;;;1.70;;
9801;SDS011;4940;50.900;4.672;2023-02-02T13:28:31;6.50;;;2.03;;
9801;SDS011;4940;50.900;4.672;2023-02-02T13:31:03;5.63;;;1.85;;
9801;SDS011;4940;50.900;4.672;2023-02-02T13:33:36;5.55;;;1.90;;
9801;SDS011;4940;50.900;4.672;2023-02-02T13:36:05;5.68;;;1.88;;
9801;SDS011;4940;50.900;4.672;2023-02-02T13:38:39;5.65;;;1.90;;
9801;SDS011;4940;50.900;4.672;2023-02-02T13:41:07;5.53;;;2.10;;
9801;SDS011;4940;50.900;4.672;2023-02-02T13:43:40;3.25;;;1.70;;
9801;SDS011;4940;50.900;4.672;2023-02-02T13:46:18;3.70;;;1.63;;
9801;SDS011;4940;50.900;4.672;2023-02-02T13:48:55;5.30;;;1.80;;
9801;SDS011;4940;50.900;4.672;2023-02-02T13:51:34;6.78;;;1.70;;
9801;SDS011;4940;50.900;4.672;2023-02-02T13:57:39;7.65;;;1.80;;
9801;SDS011;4940;50.900;4.672;2023-02-02T14:00:35;6.85;;;1.88;;
9801;SDS011;4940;50.900;4.672;2023-02-02T14:03:15;3.17;;;1.48;;
9801;SDS011;4940;50.900;4.672;2023-02-02T14:06:01;4.57;;;1.27;;
9801;SDS011;4940;50.900;4.672;2023-02-02T14:08:42;2.88;;;1.50;;
9801;SDS011;4940;50.900;4.672;2023-02-02T14:11:15;7.53;;;2.00;;
9801;SDS011;4940;50.900;4.672;2023-02-02T14:13:46;2.38;;;1.48;;
9801;SDS011;4940;50.900;4.672;2023-02-02T14:16:43;8.70;;;1.80;;
9801;SDS011;4940;50.900;4.672;2023-02-02T14:19:15;4.93;;;1.65;;
9801;SDS011;4940;50.900;4.672;2023-02-02T14:22:14;2.90;;;1.60;;
9801;SDS011;4940;50.900;4.672;2023-02-02T14:25:41;5.88;;;1.65;;
9801;SDS011;4940;50.900;4.672;2023-02-02T14:28:39;3.45;;;1.80;;
9801;SDS011;4940;50.900;4.672;2023-02-02T14:34:33;6.20;;;1.60;;
9801;SDS011;4940;50.900;4.672;2023-02-02T14:40:24;4.85;;;1.80;;
9801;SDS011;4940;50.900;4.672;2023-02-02T14:43:00;4.80;;;1.38;;
9801;SDS011;4940;50.900;4.672;2023-02-02T14:48:47;6.65;;;1.90;;
9801;SDS011;4940;50.900;4.672;2023-02-02T14:51:33;2.08;;;1.48;;
9801;SDS011;4940;50.900;4.672;2023-02-02T14:54:04;6.63;;;2.00;;
9801;SDS011;4940;50.900;4.672;2023-02-02T14:56:39;2.75;;;1.85;;
9801;SDS011;4940;50.900;4.672;2023-02-02T14:59:14;9.32;;;2.13;;
9801;SDS011;4940;50.900;4.672;2023-02-02T15:01:51;5.25;;;2.20;;
9801;SDS011;4940;50.900;4.672;2023-02-02T15:04:25;4.03;;;1.60;;
9801;SDS011;4940;50.900;4.672;2023-02-02T15:06:54;4.55;;;2.08;;
9801;SDS011;4940;50.900;4.672;2023-02-02T15:12:25;5.70;;;2.10;;
9801;SDS011;4940;50.900;4.672;2023-02-02T15:15:15;4.70;;;2.63;;
9801;SDS011;4940;50.900;4.672;2023-02-02T15:17:48;4.72;;;2.65;;
9801;SDS011;4940;50.900;4.672;2023-02-02T15:20:25;5.05;;;2.55;;
9801;SDS011;4940;50.900;4.672;2023-02-02T15:22:55;3.92;;;2.90;;
9801;SDS011;4940;50.900;4.672;2023-02-02T15:25:27;3.33;;;2.80;;
9801;SDS011;4940;50.900;4.672;2023-02-02T15:28:01;4.10;;;3.08;;
9801;SDS011;4940;50.900;4.672;2023-02-02T15:30:35;5.78;;;2.72;;
9801;SDS011;4940;50.900;4.672;2023-02-02T15:33:11;6.72;;;3.63;;
9801;SDS011;4940;50.900;4.672;2023-02-02T15:35:45;4.32;;;3.50;;
9801;SDS011;4940;50.900;4.672;2023-02-02T15:38:13;3.65;;;3.35;;
9801;SDS011;4940;50.900;4.672;2023-02-02T15:40:43;4.95;;;3.78;;
9801;SDS011;4940;50.900;4.672;2023-02-02T15:43:12;6.50;;;3.60;;
9801;SDS011;4940;50.900;4.672;2023-02-02T15:45:42;6.22;;;3.58;;
9801;SDS011;4940;50.900;4.672;2023-02-02T15:48:22;3.90;;;3.15;;
9801;SDS011;4940;50.900;4.672;2023-02-02T15:50:54;8.05;;;3.60;;
9801;SDS011;4940;50.900;4.672;2023-02-02T15:53:23;6.95;;;3.13;;
9801;SDS011;4940;50.900;4.672;2023-02-02T15:55:52;6.90;;;3.22;;
9801;SDS011;4940;50.900;4.672;2023-02-02T15:58:24;4.63;;;3.00;;
9801;SDS011;4940;50.900;4.672;2023-02-02T16:01:01;6.40;;;3.45;;
9801;SDS011;4940;50.900;4.672;2023-02-02T16:03:35;6.35;;;3.13;;
9801;SDS011;4940;50.900;4.672;2023-02-02T16:06:08;7.07;;;3.30;;
9801;SDS011;4940;50.900;4.672;2023-02-02T16:08:36;4.65;;;2.85;;
9801;SDS011;4940;50.900;4.672;2023-02-02T16:11:06;3.90;;;2.67;;
9801;SDS011;4940;50.900;4.672;2023-02-02T16:13:38;7.03;;;2.70;;